createdAt,value
2018-07-15T00:00:32.242Z,91.60
2018-07-15T00:02:59.809Z,91.60
2018-07-15T00:05:51.034Z,91.80
2018-07-15T00:08:18.582Z,91.90
2018-07-15T00:10:46.480Z,91.90
2018-07-15T00:13:14.544Z,91.90
2018-07-15T00:15:43.029Z,92.00
2018-07-15T00:18:10.590Z,92.00
2018-07-15T00:20:38.358Z,92.40
2018-07-15T00:23:06.533Z,92.10
2018-07-15T00:25:34.079Z,92.20
2018-07-15T00:28:01.973Z,92.30
2018-07-15T00:30:30.134Z,92.50
2018-07-15T00:32:57.741Z,92.60
2018-07-15T00:35:25.297Z,92.70
2018-07-15T00:37:52.850Z,92.80
2018-07-15T00:40:20.460Z,92.70
2018-07-15T00:42:48.007Z,92.70
2018-07-15T00:45:15.558Z,92.70
2018-07-15T00:47:43.109Z,92.90
2018-07-15T00:50:10.672Z,93.40
2018-07-15T00:52:38.217Z,93.70
2018-07-15T00:55:05.768Z,93.80
2018-07-15T00:57:33.346Z,93.90
2018-07-15T01:00:00.886Z,94.00
2018-07-15T01:02:28.442Z,94.00
2018-07-15T01:04:55.977Z,94.00
2018-07-15T01:07:23.535Z,94.10
2018-07-15T01:09:51.086Z,94.00
2018-07-15T01:12:18.641Z,94.00
2018-07-15T01:14:46.184Z,94.10
2018-07-15T01:17:13.742Z,93.80
2018-07-15T01:19:41.288Z,94.00
2018-07-15T01:22:08.845Z,94.10
2018-07-15T01:24:36.393Z,94.20
2018-07-15T01:27:04.244Z,94.30
2018-07-15T01:29:31.818Z,94.30
2018-07-15T01:31:59.374Z,94.40
2018-07-15T01:34:26.918Z,94.40
2018-07-15T01:36:54.473Z,94.50
2018-07-15T01:39:22.040Z,94.80
2018-07-15T01:41:49.593Z,94.90
2018-07-15T01:44:17.156Z,95.00
2018-07-15T01:46:44.735Z,95.10
2018-07-15T01:49:12.294Z,95.10
2018-07-15T01:51:39.832Z,95.10
2018-07-15T01:54:07.413Z,95.20
2018-07-15T01:56:34.955Z,95.30
2018-07-15T01:59:02.521Z,95.60
2018-07-15T02:01:30.064Z,95.60
2018-07-15T02:03:57.616Z,95.70
2018-07-15T02:06:25.145Z,95.80
2018-07-15T02:08:52.720Z,96.10
2018-07-15T02:11:20.257Z,96.10
2018-07-15T02:13:48.390Z,96.20
2018-07-15T02:16:15.932Z,96.30
2018-07-15T02:18:43.501Z,96.40
2018-07-15T02:23:38.692Z,96.40
2018-07-15T02:26:06.241Z,96.30
2018-07-15T02:28:33.792Z,96.30
2018-07-15T02:31:01.347Z,96.30
2018-07-15T02:33:28.890Z,96.30
2018-07-15T02:35:56.454Z,96.70
2018-07-15T02:38:23.983Z,96.80
2018-07-15T02:40:51.548Z,97.10
2018-07-15T02:43:19.100Z,97.30
2018-07-15T02:48:14.268Z,97.30
2018-07-15T02:50:41.818Z,97.20
2018-07-15T02:53:09.421Z,97.10
2018-07-15T02:55:36.985Z,97.20
2018-07-15T02:58:04.550Z,97.40
2018-07-15T03:00:32.104Z,97.50
2018-07-15T03:03:00.298Z,97.60
2018-07-15T03:05:27.847Z,97.90
2018-07-15T03:07:55.410Z,97.70
2018-07-15T03:10:23.184Z,97.70
2018-07-15T03:12:50.734Z,97.60
2018-07-15T03:17:45.992Z,97.70
2018-07-15T03:20:13.546Z,97.80
2018-07-15T03:22:41.106Z,97.90
2018-07-15T03:25:08.677Z,98.00
2018-07-15T03:27:36.496Z,98.00
2018-07-15T03:30:04.095Z,98.00
2018-07-15T03:32:31.629Z,98.30
2018-07-15T03:34:59.181Z,98.00
2018-07-15T03:37:26.733Z,98.10
2018-07-15T03:39:54.334Z,98.20
2018-07-15T03:42:21.918Z,98.20
2018-07-15T03:44:49.461Z,98.40
2018-07-15T03:47:17.025Z,98.40
2018-07-15T03:49:44.578Z,98.30
2018-07-15T03:52:12.134Z,98.30
2018-07-15T03:54:39.669Z,98.40
2018-07-15T03:57:07.233Z,98.40
2018-07-15T03:59:34.786Z,98.40
2018-07-15T04:02:02.355Z,98.30
2018-07-15T04:06:57.502Z,98.30
2018-07-15T04:09:25.099Z,98.30
2018-07-15T04:11:52.617Z,98.20
2018-07-15T04:14:20.172Z,98.30
2018-07-15T04:16:47.720Z,98.50
2018-07-15T04:24:16.161Z,98.40
2018-07-15T04:26:43.717Z,98.10
2018-07-15T04:29:11.261Z,97.90
2018-07-15T04:31:38.844Z,97.80
2018-07-15T04:34:06.411Z,97.70
2018-07-15T04:36:33.949Z,97.70
2018-07-15T04:39:01.485Z,97.60
2018-07-15T04:41:29.050Z,97.40
2018-07-15T04:43:56.615Z,97.20
2018-07-15T04:46:24.161Z,97.00
2018-07-15T04:48:51.725Z,96.80
2018-07-15T04:51:19.297Z,96.60
2018-07-15T04:53:46.841Z,96.50
2018-07-15T04:58:41.997Z,95.30
2018-07-15T05:01:09.546Z,93.00
2018-07-15T05:03:37.129Z,90.30
2018-07-15T05:06:04.665Z,84.40
2018-07-15T05:08:32.241Z,79.50
2018-07-15T05:10:59.772Z,75.20
2018-07-15T05:13:27.316Z,72.10
2018-07-15T05:15:54.852Z,72.50
2018-07-15T05:18:22.424Z,72.20
2018-07-15T05:20:49.954Z,74.20
2018-07-15T05:23:17.508Z,72.10
2018-07-15T05:25:45.053Z,68.10
2018-07-15T05:28:12.592Z,64.30
2018-07-15T05:30:40.129Z,61.10
2018-07-15T05:33:07.681Z,58.30
2018-07-15T05:35:35.217Z,56.10
2018-07-15T05:38:02.785Z,54.00
2018-07-15T05:40:30.338Z,51.30
2018-07-15T05:42:57.902Z,50.10
2018-07-15T05:45:25.508Z,48.30
2018-07-15T05:47:53.054Z,47.40
2018-07-15T05:52:48.225Z,44.80
2018-07-15T05:55:15.765Z,44.40
2018-07-15T05:57:43.305Z,44.10
2018-07-15T06:00:10.873Z,43.20
2018-07-15T06:02:38.435Z,42.50
2018-07-15T06:05:06.021Z,42.00
2018-07-15T06:07:33.569Z,40.50
2018-07-15T06:10:01.132Z,40.70
2018-07-15T06:12:28.691Z,40.00
2018-07-15T06:14:56.245Z,39.40
2018-07-15T06:17:23.863Z,39.30
2018-07-15T06:19:51.402Z,38.90
2018-07-15T06:22:18.952Z,38.40
2018-07-15T06:24:46.498Z,38.40
2018-07-15T06:27:14.049Z,38.10
2018-07-15T06:29:41.598Z,37.70
2018-07-15T06:32:09.153Z,37.40
2018-07-15T06:34:36.694Z,37.30
2018-07-15T06:37:04.499Z,37.20
2018-07-15T06:39:32.045Z,37.40
2018-07-15T06:41:59.597Z,37.40
2018-07-15T06:44:27.136Z,37.40
2018-07-15T06:46:54.674Z,37.30
2018-07-15T06:49:22.244Z,37.40
2018-07-15T06:51:49.774Z,37.10
2018-07-15T06:54:17.436Z,36.40
2018-07-15T06:56:44.986Z,36.60
2018-07-15T06:59:12.555Z,36.10
2018-07-15T07:01:40.184Z,35.50
2018-07-15T07:04:07.676Z,36.20
2018-07-15T07:06:35.233Z,36.80
2018-07-15T07:09:04.081Z,36.40
2018-07-15T07:11:31.629Z,36.30
2018-07-15T07:13:59.176Z,36.50
2018-07-15T07:16:26.718Z,36.40
2018-07-15T07:18:54.274Z,36.10
2018-07-15T07:21:21.818Z,35.60
2018-07-15T07:23:49.372Z,36.20
2018-07-15T07:26:16.926Z,36.20
2018-07-15T07:28:44.525Z,36.20
2018-07-15T07:31:12.040Z,36.40
2018-07-15T07:33:39.583Z,36.00
2018-07-15T07:36:07.128Z,36.40
2018-07-15T07:38:34.681Z,36.60
2018-07-15T07:41:02.234Z,36.80
2018-07-15T07:43:29.785Z,36.70
2018-07-15T07:45:57.325Z,36.80
2018-07-15T07:48:24.884Z,37.40
2018-07-15T07:50:52.438Z,37.50
2018-07-15T07:53:20.006Z,37.70
2018-07-15T07:55:47.540Z,37.50
2018-07-15T07:58:15.089Z,37.30
2018-07-15T08:00:42.629Z,37.60
2018-07-15T08:03:10.196Z,37.40
2018-07-15T08:05:37.761Z,37.40
2018-07-15T08:08:05.355Z,37.80
2018-07-15T08:10:32.918Z,37.80
2018-07-15T08:13:00.500Z,38.30
2018-07-15T08:15:28.189Z,39.10
2018-07-15T08:17:55.749Z,39.70
2018-07-15T08:20:23.303Z,40.40
2018-07-15T08:22:51.036Z,40.50
2018-07-15T08:25:18.592Z,40.90
2018-07-15T08:27:46.130Z,40.10
2018-07-15T08:30:31.214Z,40.10
2018-07-15T08:32:58.753Z,39.60
2018-07-15T08:35:26.301Z,39.40
2018-07-15T08:37:53.849Z,39.20
2018-07-15T08:40:21.397Z,39.50
2018-07-15T08:42:48.946Z,39.80
2018-07-15T08:45:16.526Z,39.80
2018-07-15T08:47:44.070Z,39.70
2018-07-15T08:50:11.613Z,40.50
2018-07-15T08:52:39.145Z,40.70
2018-07-15T08:55:06.706Z,40.30
2018-07-15T08:57:34.533Z,40.20
2018-07-15T09:00:02.085Z,39.80
2018-07-15T09:02:29.617Z,39.70
2018-07-15T09:04:57.164Z,39.70
2018-07-15T09:07:24.713Z,39.10
2018-07-15T09:09:52.279Z,38.70
2018-07-15T09:12:19.816Z,39.00
2018-07-15T09:14:47.373Z,37.50
2018-07-15T09:17:14.910Z,37.70
2018-07-15T09:19:42.481Z,37.10
2018-07-15T09:22:10.029Z,37.50
2018-07-15T09:24:37.596Z,37.90
2018-07-15T09:27:05.165Z,37.40
2018-07-15T09:29:32.921Z,37.30
2018-07-15T09:32:00.482Z,37.10
2018-07-15T09:34:28.136Z,36.80
2018-07-15T09:36:55.681Z,37.70
2018-07-15T09:39:26.669Z,37.90
2018-07-15T09:41:54.204Z,38.30
2018-07-15T09:44:21.765Z,38.10
2018-07-15T09:46:49.312Z,37.70
2018-07-15T09:49:16.852Z,36.50
2018-07-15T09:51:44.392Z,37.00
2018-07-15T09:54:11.959Z,37.10
2018-07-15T09:56:39.661Z,37.20
2018-07-15T09:59:07.204Z,37.40
2018-07-15T10:01:34.758Z,36.10
2018-07-15T10:04:07.406Z,35.90
2018-07-15T10:06:34.973Z,36.10
2018-07-15T10:09:03.836Z,36.70
2018-07-15T10:11:31.388Z,36.20
2018-07-15T10:13:58.943Z,35.70
2018-07-15T10:16:26.497Z,35.50
2018-07-15T10:18:54.049Z,35.00
2018-07-15T10:21:21.629Z,34.40
2018-07-15T10:23:49.173Z,34.40
2018-07-15T10:26:16.734Z,34.30
2018-07-15T10:28:44.278Z,34.10
2018-07-15T10:31:11.816Z,33.70
2018-07-15T10:33:39.362Z,33.40
2018-07-15T10:36:06.923Z,33.60
2018-07-15T10:38:34.473Z,33.70
2018-07-15T10:41:02.026Z,33.80
2018-07-15T10:43:29.573Z,33.20
2018-07-15T10:45:57.165Z,33.20
2018-07-15T10:48:24.750Z,33.00
2018-07-15T10:50:52.326Z,32.30
2018-07-15T10:53:19.873Z,32.50
2018-07-15T10:55:47.417Z,33.00
2018-07-15T10:58:14.980Z,32.80
2018-07-15T11:00:42.546Z,33.40
2018-07-15T11:03:10.124Z,34.60
2018-07-15T11:05:37.686Z,35.50
2018-07-15T11:10:32.865Z,35.70
2018-07-15T11:13:00.405Z,35.80
2018-07-15T11:15:27.970Z,35.60
2018-07-15T11:17:55.508Z,35.10
2018-07-15T11:20:23.078Z,34.90
2018-07-15T11:22:50.621Z,35.00
2018-07-15T11:25:18.185Z,35.20
2018-07-15T11:27:45.729Z,35.10
2018-07-15T11:30:13.290Z,34.10
2018-07-15T11:32:40.879Z,34.70
2018-07-15T11:35:08.422Z,34.70
2018-07-15T11:37:35.985Z,34.30
2018-07-15T11:40:03.662Z,34.20
2018-07-15T11:42:31.212Z,34.30
2018-07-15T11:44:58.756Z,34.90
2018-07-15T11:50:45.581Z,34.00
2018-07-15T11:53:26.770Z,33.90
2018-07-15T11:56:04.905Z,34.00
2018-07-15T11:58:32.448Z,34.20
2018-07-15T12:00:59.991Z,33.70
2018-07-15T12:03:27.552Z,33.40
2018-07-15T12:05:55.116Z,32.00
2018-07-15T12:08:22.687Z,31.90
2018-07-15T12:10:53.444Z,31.90
2018-07-15T12:13:41.005Z,32.60
2018-07-15T12:16:28.892Z,32.80
2018-07-15T12:18:56.468Z,32.60
2018-07-15T12:21:42.964Z,32.90
2018-07-15T12:24:10.533Z,32.60
2018-07-15T12:26:38.076Z,33.00
2018-07-15T12:29:06.034Z,32.40
2018-07-15T12:31:33.572Z,32.50
2018-07-15T12:34:01.124Z,32.00
2018-07-15T12:36:28.698Z,32.20
2018-07-15T12:38:56.236Z,32.50
2018-07-15T12:41:23.797Z,31.90
2018-07-15T12:43:51.407Z,31.80
2018-07-15T12:46:18.977Z,31.50
2018-07-15T12:48:46.598Z,31.10
2018-07-15T12:51:14.169Z,30.10
2018-07-15T12:53:41.784Z,30.90
2018-07-15T12:56:09.613Z,31.10
2018-07-15T12:58:37.162Z,31.10
2018-07-15T13:03:32.348Z,31.20
2018-07-15T13:05:59.910Z,31.30
2018-07-15T13:08:27.488Z,31.80
2018-07-15T13:10:55.050Z,32.40
2018-07-15T13:13:22.824Z,31.40
2018-07-15T13:15:50.381Z,30.90
2018-07-15T13:18:17.930Z,30.80
2018-07-15T13:20:45.529Z,31.30
2018-07-15T13:23:13.116Z,31.40
2018-07-15T13:25:40.704Z,30.70
2018-07-15T13:28:08.257Z,30.50
2018-07-15T13:30:36.206Z,30.90
2018-07-15T13:33:03.726Z,30.70
2018-07-15T13:35:33.356Z,30.80
2018-07-15T13:38:14.196Z,30.40
2018-07-15T13:40:45.846Z,30.70
2018-07-15T13:43:13.519Z,30.30
2018-07-15T13:45:41.096Z,30.40
2018-07-15T13:48:08.658Z,29.90
2018-07-15T13:50:48.881Z,29.50
2018-07-15T13:53:16.442Z,29.70
2018-07-15T13:58:11.597Z,30.00
2018-07-15T14:00:39.143Z,30.50
2018-07-15T14:03:06.695Z,30.10
2018-07-15T14:05:34.272Z,30.00
2018-07-15T14:08:01.828Z,30.20
2018-07-15T14:10:29.434Z,29.90
2018-07-15T14:12:56.957Z,30.20
2018-07-15T14:15:24.513Z,30.10
2018-07-15T14:17:52.058Z,29.70
2018-07-15T14:20:19.604Z,29.50
2018-07-15T14:22:47.162Z,29.70
2018-07-15T14:25:14.708Z,29.90
2018-07-15T14:27:42.260Z,30.00
2018-07-15T14:30:09.796Z,29.80
2018-07-15T14:32:37.761Z,30.10
2018-07-15T14:35:05.937Z,30.00
2018-07-15T14:37:33.525Z,30.00
2018-07-15T14:40:01.055Z,30.00
2018-07-15T14:42:28.614Z,30.50
2018-07-15T14:44:56.153Z,30.40
2018-07-15T14:47:23.721Z,31.20
2018-07-15T14:49:51.256Z,32.30
2018-07-15T14:52:18.818Z,33.20
2018-07-15T14:57:14.001Z,34.60
2018-07-15T14:59:41.562Z,35.10
2018-07-15T15:02:09.232Z,35.70
2018-07-15T15:04:36.681Z,35.60
2018-07-15T15:07:04.250Z,35.00
2018-07-15T15:09:31.805Z,34.40
2018-07-15T15:11:59.356Z,33.60
2018-07-15T15:14:26.965Z,32.30
2018-07-15T15:16:54.493Z,32.00
2018-07-15T15:19:22.076Z,32.40
2018-07-15T15:21:49.616Z,32.20
2018-07-15T15:24:17.180Z,31.90
2018-07-15T15:26:44.728Z,32.10
2018-07-15T15:29:12.290Z,32.10
2018-07-15T15:31:39.838Z,32.80
2018-07-15T15:34:07.409Z,33.80
2018-07-15T15:36:34.948Z,34.60
2018-07-15T15:39:03.890Z,35.00
2018-07-15T15:41:31.440Z,35.30
2018-07-15T15:43:59.010Z,35.30
2018-07-15T15:46:26.582Z,35.10
2018-07-15T15:48:54.138Z,34.90
2018-07-15T15:51:21.680Z,34.60
2018-07-15T15:53:49.230Z,34.70
2018-07-15T15:56:16.782Z,35.30
2018-07-15T15:58:44.358Z,34.40
2018-07-15T16:01:11.905Z,34.00
2018-07-15T16:03:39.461Z,33.90
2018-07-15T16:06:07.018Z,33.20
2018-07-15T16:08:34.599Z,32.80
2018-07-15T16:11:14.854Z,32.50
2018-07-15T16:13:42.417Z,32.40
2018-07-15T16:16:09.994Z,32.30
2018-07-15T16:18:37.540Z,32.70
2018-07-15T16:21:05.114Z,33.10
2018-07-15T16:23:32.674Z,33.10
2018-07-15T16:26:00.212Z,33.30
2018-07-15T16:28:27.760Z,33.30
2018-07-15T16:30:55.296Z,33.40
2018-07-15T16:33:22.844Z,33.50
2018-07-15T16:35:50.384Z,33.30
2018-07-15T16:38:17.941Z,33.40
2018-07-15T16:40:45.493Z,33.60
2018-07-15T16:43:13.044Z,33.80
2018-07-15T16:45:40.594Z,33.90
2018-07-15T16:48:08.141Z,34.20
2018-07-15T16:50:35.702Z,34.70
2018-07-15T16:53:03.248Z,35.00
2018-07-15T16:58:36.932Z,35.60
2018-07-15T17:01:04.497Z,36.10
2018-07-15T17:03:32.054Z,36.20
2018-07-15T17:05:59.606Z,36.50
2018-07-15T17:08:27.154Z,36.70
2018-07-15T17:10:54.722Z,37.10
2018-07-15T17:13:22.478Z,37.10
2018-07-15T17:15:50.036Z,37.30
2018-07-15T17:18:17.572Z,37.70
2018-07-15T17:20:45.174Z,37.90
2018-07-15T17:23:12.734Z,38.00
2018-07-15T17:25:40.309Z,38.20
2018-07-15T17:28:07.836Z,38.30
2018-07-15T17:30:35.385Z,38.30
2018-07-15T17:33:02.924Z,38.30
2018-07-15T17:35:30.477Z,38.20
2018-07-15T17:37:58.036Z,38.30
2018-07-15T17:40:25.728Z,38.30
2018-07-15T17:42:53.260Z,38.30
2018-07-15T17:45:20.801Z,38.30
2018-07-15T17:47:48.333Z,38.30
2018-07-15T17:50:15.884Z,38.40
2018-07-15T17:52:43.452Z,38.40
2018-07-15T17:55:11.021Z,38.30
2018-07-15T17:57:38.793Z,38.50
2018-07-15T18:00:06.382Z,38.50
2018-07-15T18:06:04.270Z,38.80
2018-07-15T18:08:31.807Z,39.00
2018-07-15T18:10:59.348Z,39.20
2018-07-15T18:13:26.878Z,39.60
2018-07-15T18:15:54.438Z,40.00
2018-07-15T18:18:22.057Z,40.20
2018-07-15T18:20:49.609Z,40.40
2018-07-15T18:23:17.138Z,40.70
2018-07-15T18:28:57.378Z,41.40
2018-07-15T18:31:24.929Z,42.00
2018-07-15T18:33:52.476Z,42.40
2018-07-15T18:36:20.057Z,42.90
2018-07-15T18:38:47.612Z,43.10
2018-07-15T18:41:15.170Z,43.70
2018-07-15T18:43:42.691Z,44.30
2018-07-15T18:46:10.245Z,44.90
2018-07-15T18:48:37.772Z,45.30
2018-07-15T18:51:05.344Z,45.90
2018-07-15T18:53:33.000Z,46.70
2018-07-15T18:56:00.510Z,47.30
2018-07-15T18:58:28.065Z,47.90
2018-07-15T19:00:55.621Z,48.30
2018-07-15T19:03:23.170Z,48.70
2018-07-15T19:05:50.754Z,49.00
2018-07-15T19:08:18.293Z,49.40
2018-07-15T19:10:45.858Z,49.60
2018-07-15T19:13:13.400Z,50.20
2018-07-15T19:15:40.961Z,50.50
2018-07-15T19:18:08.559Z,51.00
2018-07-15T19:20:36.068Z,51.30
2018-07-15T19:23:03.629Z,51.30
2018-07-15T19:25:31.177Z,51.40
2018-07-15T19:27:58.758Z,51.30
2018-07-15T19:30:26.341Z,51.60
2018-07-15T19:32:53.911Z,51.60
2018-07-15T19:35:21.469Z,51.80
2018-07-15T19:37:49.011Z,52.00
2018-07-15T19:40:16.610Z,52.40
2018-07-15T19:42:44.170Z,52.90
2018-07-15T19:45:11.750Z,53.50
2018-07-15T19:47:39.285Z,53.70
2018-07-15T19:50:06.856Z,53.80
2018-07-15T19:52:34.453Z,53.90
2018-07-15T19:55:01.987Z,54.00
2018-07-15T19:57:29.546Z,54.00
2018-07-15T19:59:57.090Z,54.10
2018-07-15T20:02:24.669Z,54.20
2018-07-15T20:04:52.193Z,54.40
2018-07-15T20:07:19.750Z,54.40
2018-07-15T20:09:47.304Z,54.50
2018-07-15T20:12:14.896Z,54.40
2018-07-15T20:14:42.452Z,55.20
2018-07-15T20:17:10.257Z,54.80
2018-07-15T20:19:37.833Z,55.10
2018-07-15T20:22:05.929Z,55.50
2018-07-15T20:24:33.491Z,56.30
2018-07-15T20:27:01.051Z,56.90
2018-07-15T20:29:28.606Z,57.50
2018-07-15T20:31:56.153Z,58.00
2018-07-15T20:34:23.802Z,58.60
2018-07-15T20:36:51.280Z,59.00
2018-07-15T20:39:18.818Z,59.30
2018-07-15T20:41:46.373Z,59.50
2018-07-15T20:44:13.901Z,60.20
2018-07-15T20:46:41.522Z,60.60
2018-07-15T20:49:08.998Z,61.50
2018-07-15T20:51:43.499Z,62.20
2018-07-15T20:54:11.044Z,62.40
2018-07-15T20:56:38.657Z,63.00
2018-07-15T20:59:06.290Z,63.30
2018-07-15T21:01:35.148Z,63.60
2018-07-15T21:04:03.530Z,63.60
2018-07-15T21:06:32.116Z,63.90
2018-07-15T21:08:59.865Z,64.80
2018-07-15T21:17:39.970Z,66.20
2018-07-15T21:26:16.184Z,67.30
2018-07-15T21:31:49.850Z,67.50
2018-07-15T21:34:17.402Z,68.00
2018-07-15T21:36:45.233Z,68.20
2018-07-15T21:39:12.809Z,68.50
2018-07-15T21:41:40.411Z,69.00
2018-07-15T21:44:08.095Z,69.80
2018-07-15T21:46:59.911Z,70.10
2018-07-15T21:49:27.440Z,70.40
2018-07-15T21:52:02.432Z,70.70
2018-07-15T21:54:29.986Z,70.90
2018-07-15T21:57:12.416Z,71.50
2018-07-15T22:00:11.253Z,72.70
2018-07-15T22:02:56.695Z,72.50
2018-07-15T22:05:24.230Z,72.90
2018-07-15T22:08:19.089Z,73.50
2018-07-15T22:10:47.305Z,74.10
2018-07-15T22:13:14.857Z,74.80
2018-07-15T22:15:55.130Z,74.90
2018-07-15T22:20:52.425Z,74.70
2018-07-15T22:23:19.976Z,75.10
2018-07-15T22:25:47.520Z,75.30
2018-07-15T22:28:15.066Z,75.50
2018-07-15T22:30:42.617Z,75.50
2018-07-15T22:33:10.175Z,75.30
2018-07-15T22:35:37.705Z,75.60
2018-07-15T22:38:06.178Z,75.70
2018-07-15T22:40:33.741Z,75.80
2018-07-15T22:43:01.289Z,76.50
2018-07-15T22:45:28.824Z,77.20
2018-07-15T22:47:56.372Z,77.60
2018-07-15T22:50:23.905Z,77.90
2018-07-15T22:53:12.489Z,78.00
2018-07-15T22:55:40.042Z,77.70
2018-07-15T22:58:07.594Z,78.00
2018-07-15T23:03:02.766Z,78.50
2018-07-15T23:05:49.016Z,79.10
2018-07-15T23:08:16.579Z,79.60
2018-07-15T23:10:44.136Z,79.80
2018-07-15T23:13:12.121Z,79.80
2018-07-15T23:15:40.108Z,79.90
2018-07-15T23:18:07.693Z,79.90
2018-07-15T23:20:35.942Z,80.10
2018-07-15T23:23:05.342Z,80.70
2018-07-15T23:25:32.989Z,81.30
2018-07-15T23:28:01.173Z,81.30
2018-07-15T23:30:29.554Z,81.70
2018-07-15T23:35:24.952Z,82.00
2018-07-15T23:37:52.506Z,82.10
2018-07-15T23:40:20.054Z,82.80
2018-07-15T23:42:47.711Z,82.90
2018-07-15T23:45:15.201Z,83.40
2018-07-15T23:47:42.753Z,83.60
2018-07-15T23:50:10.306Z,83.00
2018-07-15T23:52:37.861Z,83.30
2018-07-15T23:55:05.467Z,83.80
2018-07-15T23:57:33.031Z,84.20
